Time;durP1;ratioP1;P1;durP2;ratioP2;P2;SDS_P1;SDS_P2;PMS_P1;PMS_P2;Temp;Humidity;BMP_temperature;BMP_pressure;BME280_temperature;BME280_humidity;BME280_pressure;Samples;Min_cycle;Max_cycle;Signal;HPM_P1;HPM_P2
2023/08/29 00:02:22;;;;;;;10.30;10.00;;;13.70;99.90;;;;;;5038273;28;20242;-75
2023/08/29 00:04:49;;;;;;;10.20;9.90;;;13.70;99.90;;;;;;5038413;28;20290;-75
2023/08/29 00:07:16;;;;;;;10.03;9.73;;;13.70;99.90;;;;;;5038445;28;20259;-75
2023/08/29 00:09:45;;;;;;;10.10;9.80;;;13.70;99.90;;;;;;5040200;28;20254;-75
2023/08/29 00:12:12;;;;;;;10.53;10.23;;;13.70;99.90;;;;;;5037159;28;20244;-75
2023/08/29 00:14:40;;;;;;;10.30;10.00;;;13.70;99.90;;;;;;5040335;28;20233;-76
2023/08/29 00:17:07;;;;;;;10.20;9.90;;;13.70;99.90;;;;;;5049251;28;20240;-76
2023/08/29 00:19:34;;;;;;;10.47;10.17;;;13.70;99.90;;;;;;5053285;28;20315;-76
2023/08/29 00:22:01;;;;;;;10.50;10.20;;;13.70;99.90;;;;;;5050792;28;20234;-75
2023/08/29 00:24:29;;;;;;;10.33;10.03;;;13.70;99.90;;;;;;5053324;28;20243;-74
2023/08/29 00:26:57;;;;;;;10.60;10.30;;;13.70;99.90;;;;;;5058365;28;20295;-75
2023/08/29 00:29:26;;;;;;;10.13;9.83;;;13.70;99.90;;;;;;5043574;28;20246;-76
2023/08/29 00:31:53;;;;;;;10.10;9.80;;;13.70;99.90;;;;;;5038935;28;20235;-76
2023/08/29 00:34:20;;;;;;;10.40;10.10;;;13.70;99.90;;;;;;5038532;28;20227;-76
2023/08/29 00:36:47;;;;;;;10.30;10.00;;;13.70;99.90;;;;;;5038404;28;20254;-76
2023/08/29 00:39:14;;;;;;;10.27;9.97;;;13.70;99.90;;;;;;5029826;28;20227;-76
2023/08/29 00:41:41;;;;;;;10.13;9.83;;;13.60;99.90;;;;;;5036967;28;20247;-77
2023/08/29 00:44:09;;;;;;;10.20;9.90;;;13.60;99.90;;;;;;5037575;28;20307;-78
2023/08/29 00:46:36;;;;;;;10.43;10.13;;;13.60;99.90;;;;;;5040156;28;20227;-76
2023/08/29 00:49:03;;;;;;;10.30;10.00;;;13.60;99.90;;;;;;5037351;28;20231;-75
2023/08/29 00:51:30;;;;;;;10.40;10.10;;;13.70;99.90;;;;;;5037877;28;20231;-76
2023/08/29 00:53:58;;;;;;;10.20;9.90;;;13.70;99.90;;;;;;5046282;28;20393;-75
2023/08/29 00:56:25;;;;;;;10.40;10.10;;;13.70;99.90;;;;;;5042652;28;20257;-76
2023/08/29 00:58:52;;;;;;;10.30;10.00;;;13.70;99.90;;;;;;5042295;28;20318;-76
2023/08/29 01:01:21;;;;;;;10.10;9.80;;;13.70;99.90;;;;;;5040391;28;20224;-76
2023/08/29 01:03:48;;;;;;;10.40;10.10;;;13.70;99.90;;;;;;5039572;28;20231;-76
2023/08/29 01:06:16;;;;;;;10.37;10.07;;;13.70;99.90;;;;;;5038970;28;20238;-76
2023/08/29 01:08:44;;;;;;;10.50;10.20;;;13.70;99.90;;;;;;5038444;28;20239;-76
2023/08/29 01:11:17;;;;;;;10.10;9.80;;;13.70;99.90;;;;;;5037639;28;20258;-76
2023/08/29 01:13:55;;;;;;;10.00;9.70;;;13.60;99.90;;;;;;5038087;28;20227;-76
2023/08/29 01:16:35;;;;;;;10.23;9.93;;;13.70;99.90;;;;;;5031233;28;20227;-77
2023/08/29 01:19:12;;;;;;;10.00;9.70;;;13.70;99.90;;;;;;5037657;28;20227;-76
2023/08/29 01:21:48;;;;;;;10.07;9.77;;;13.70;99.90;;;;;;5037455;28;20238;-76
2023/08/29 01:24:26;;;;;;;10.30;10.00;;;13.70;99.90;;;;;;5037366;28;20237;-76
2023/08/29 01:26:56;;;;;;;10.43;10.13;;;13.70;99.90;;;;;;5037018;28;20231;-76
2023/08/29 01:29:23;;;;;;;10.37;10.07;;;13.60;99.90;;;;;;5037362;28;20235;-76
2023/08/29 01:31:51;;;;;;;10.10;9.80;;;13.60;99.90;;;;;;5036410;28;20271;-75
2023/08/29 01:34:18;;;;;;;10.27;9.97;;;13.60;99.90;;;;;;5037415;28;20234;-77
2023/08/29 01:36:47;;;;;;;10.40;10.10;;;13.60;99.90;;;;;;5037113;28;20231;-76
2023/08/29 01:39:14;;;;;;;10.10;9.80;;;13.60;99.90;;;;;;5037453;28;20295;-77
2023/08/29 01:41:41;;;;;;;10.30;10.00;;;13.60;99.90;;;;;;5036868;28;20242;-76
2023/08/29 01:44:09;;;;;;;10.50;10.20;;;13.60;99.90;;;;;;5039143;28;20227;-75
2023/08/29 01:46:37;;;;;;;10.13;9.83;;;13.50;99.90;;;;;;5044403;28;20220;-76
2023/08/29 01:49:05;;;;;;;10.00;9.70;;;13.50;99.90;;;;;;5044257;28;20227;-75
2023/08/29 01:51:32;;;;;;;10.27;9.97;;;13.50;99.90;;;;;;5047212;28;20246;-76
2023/08/29 01:53:59;;;;;;;10.07;9.77;;;13.50;99.90;;;;;;5045263;28;20223;-76
2023/08/29 01:56:30;;;;;;;9.80;9.50;;;13.50;99.90;;;;;;5038077;28;20270;-76
2023/08/29 01:58:59;;;;;;;9.80;9.50;;;13.40;99.90;;;;;;5038074;28;20235;-77
2023/08/29 02:01:29;;;;;;;9.80;9.50;;;13.30;99.90;;;;;;5038483;28;20243;-77
2023/08/29 02:03:56;;;;;;;9.93;9.63;;;13.30;99.90;;;;;;5038298;28;20230;-77
2023/08/29 02:06:23;;;;;;;9.93;9.63;;;13.20;99.90;;;;;;5036804;28;20237;-77
2023/08/29 02:08:50;;;;;;;9.70;9.40;;;13.20;99.90;;;;;;5038565;28;20291;-77
2023/08/29 02:11:17;;;;;;;9.50;9.20;;;13.20;99.90;;;;;;5039460;28;20243;-77
2023/08/29 02:13:44;;;;;;;9.90;9.60;;;13.20;99.90;;;;;;5037712;28;20232;-76
2023/08/29 02:16:11;;;;;;;9.50;9.20;;;13.10;99.90;;;;;;5037766;28;20234;-77
2023/08/29 02:18:40;;;;;;;9.47;9.17;;;13.10;99.90;;;;;;5037819;28;20236;-77
2023/08/29 02:21:07;;;;;;;9.40;9.10;;;13.10;99.90;;;;;;5038283;28;20310;-78
2023/08/29 02:23:34;;;;;;;9.70;9.40;;;13.10;99.90;;;;;;5037662;28;20228;-77
2023/08/29 02:26:03;;;;;;;9.17;8.87;;;13.10;99.90;;;;;;5038976;28;20247;-77
2023/08/29 02:28:33;;;;;;;9.63;9.33;;;13.10;99.90;;;;;;5038176;28;20334;-77
2023/08/29 02:31:04;;;;;;;9.40;9.10;;;13.10;99.90;;;;;;5037980;28;20241;-77
2023/08/29 02:33:31;;;;;;;9.50;9.20;;;13.00;99.90;;;;;;5038031;28;20271;-76
2023/08/29 02:35:59;;;;;;;9.33;9.03;;;13.00;99.90;;;;;;5041545;28;20232;-77
2023/08/29 02:38:26;;;;;;;9.50;9.20;;;13.00;99.90;;;;;;5041837;28;20231;-77
2023/08/29 02:40:54;;;;;;;9.20;8.90;;;12.90;99.90;;;;;;5049904;28;20235;-77
2023/08/29 02:43:21;;;;;;;8.90;8.60;;;12.90;99.90;;;;;;5037263;28;21075;-78
2023/08/29 02:45:48;;;;;;;8.97;8.67;;;13.00;99.90;;;;;;5040795;28;20278;-77
2023/08/29 02:48:14;;;;;;;9.10;8.80;;;12.90;99.90;;;;;;5041155;28;20235;-77
2023/08/29 02:50:44;;;;;;;9.20;8.90;;;12.90;99.90;;;;;;5041214;28;20220;-77
2023/08/29 02:53:12;;;;;;;9.23;8.93;;;12.90;99.90;;;;;;5041286;28;20232;-76
2023/08/29 02:55:41;;;;;;;9.10;8.80;;;12.90;99.90;;;;;;5041530;28;20314;-77
2023/08/29 02:58:08;;;;;;;9.53;9.23;;;12.90;99.90;;;;;;5041245;28;20232;-77
2023/08/29 03:00:35;;;;;;;9.33;9.03;;;12.90;99.90;;;;;;5041019;28;20323;-77
2023/08/29 03:03:04;;;;;;;9.50;9.20;;;12.90;99.90;;;;;;5042333;28;20242;-77
2023/08/29 03:05:32;;;;;;;9.37;9.07;;;12.90;99.90;;;;;;5042186;28;20227;-77
2023/08/29 03:07:59;;;;;;;9.10;8.80;;;12.90;99.90;;;;;;5042276;28;20235;-77
2023/08/29 03:10:27;;;;;;;9.20;8.90;;;12.80;99.90;;;;;;5040798;28;20235;-77
2023/08/29 03:12:54;;;;;;;9.10;8.80;;;12.80;99.90;;;;;;5039784;28;20231;-77
2023/08/29 03:15:21;;;;;;;8.90;8.60;;;12.80;99.90;;;;;;5040356;28;20227;-77
2023/08/29 03:17:48;;;;;;;9.30;9.00;;;12.80;99.90;;;;;;5041117;28;20233;-77
2023/08/29 03:20:16;;;;;;;9.17;8.87;;;12.80;99.90;;;;;;5033013;28;20234;-77
2023/08/29 03:22:43;;;;;;;8.90;8.60;;;12.90;99.90;;;;;;5040764;28;20314;-77
2023/08/29 03:25:10;;;;;;;9.10;8.80;;;12.90;99.90;;;;;;5041332;28;20231;-77
2023/08/29 03:27:38;;;;;;;9.20;8.90;;;12.80;99.90;;;;;;5040649;28;20242;-78
2023/08/29 03:30:07;;;;;;;9.10;8.80;;;12.80;99.90;;;;;;5040815;28;20295;-76
2023/08/29 03:32:35;;;;;;;9.17;8.87;;;12.70;99.90;;;;;;5043907;28;20227;-74
2023/08/29 03:35:02;;;;;;;9.10;8.80;;;12.80;99.90;;;;;;5047219;28;20247;-77
2023/08/29 03:37:29;;;;;;;9.20;8.90;;;12.70;99.90;;;;;;5044573;28;20324;-77
2023/08/29 03:39:56;;;;;;;9.20;8.90;;;12.70;99.90;;;;;;5042923;28;20231;-77
2023/08/29 03:42:23;;;;;;;9.20;8.90;;;12.80;99.90;;;;;;5040633;28;20287;-77
2023/08/29 03:44:51;;;;;;;9.17;8.87;;;12.80;99.90;;;;;;5040965;28;20236;-77
2023/08/29 03:47:18;;;;;;;9.40;9.10;;;12.80;99.90;;;;;;5041007;28;20235;-77
2023/08/29 03:49:45;;;;;;;9.10;8.80;;;12.80;99.90;;;;;;5041736;28;20236;-77
2023/08/29 03:52:23;;;;;;;9.10;8.80;;;12.80;99.90;;;;;;5049259;28;20223;-76
2023/08/29 03:54:50;;;;;;;9.37;9.07;;;12.80;99.90;;;;;;5040659;28;20242;-77
2023/08/29 03:57:17;;;;;;;9.30;9.00;;;12.80;99.90;;;;;;5039865;28;20258;-77
2023/08/29 03:59:44;;;;;;;9.23;8.93;;;12.80;99.90;;;;;;5047798;28;20328;-77
2023/08/29 04:02:12;;;;;;;9.30;9.00;;;12.70;99.90;;;;;;5038907;28;20279;-77
2023/08/29 04:04:39;;;;;;;9.40;9.10;;;12.80;99.90;;;;;;5040342;28;20231;-77
2023/08/29 04:07:06;;;;;;;9.40;9.10;;;12.80;99.90;;;;;;5048283;28;20295;-77
2023/08/29 04:09:34;;;;;;;9.30;9.00;;;12.80;99.90;;;;;;5039583;28;20219;-77
2023/08/29 04:12:01;;;;;;;9.30;9.00;;;12.80;99.90;;;;;;5038251;28;20232;-77
2023/08/29 04:14:28;;;;;;;9.23;8.93;;;12.80;99.90;;;;;;5038954;28;20709;-76
2023/08/29 04:16:55;;;;;;;9.10;8.80;;;12.80;99.90;;;;;;5039877;28;20323;-77
2023/08/29 04:19:24;;;;;;;9.00;8.70;;;12.80;99.90;;;;;;5039529;28;20322;-77
2023/08/29 04:21:50;;;;;;;8.90;8.60;;;12.80;99.90;;;;;;5039091;28;20239;-77
2023/08/29 04:24:17;;;;;;;8.80;8.50;;;12.80;99.90;;;;;;5039704;28;20228;-77
2023/08/29 04:26:44;;;;;;;9.17;8.87;;;12.80;99.90;;;;;;5048644;28;20293;-77
2023/08/29 04:29:11;;;;;;;9.20;8.90;;;12.80;99.90;;;;;;5039094;28;20231;-77
2023/08/29 04:31:38;;;;;;;9.10;8.80;;;12.80;99.90;;;;;;5037801;28;20282;-77
2023/08/29 04:34:05;;;;;;;9.00;8.70;;;12.80;99.90;;;;;;5067602;22;20325;-84
2023/08/29 04:36:34;;;;;;;9.30;9.00;;;12.80;99.90;;;;;;5060510;28;20226;-83
2023/08/29 04:39:02;;;;;;;9.17;8.87;;;12.80;99.90;;;;;;5059921;28;20326;-84
2023/08/29 04:44:10;;;;;;;8.70;8.50;;;12.80;99.90;;;;;;5060934;28;20230;-84
2023/08/29 04:46:49;;;;;;;9.20;8.90;;;12.80;99.90;;;;;;5061156;28;20239;-84
2023/08/29 04:49:17;;;;;;;9.30;9.00;;;12.80;99.90;;;;;;5059252;28;20241;-83
2023/08/29 04:51:50;;;;;;;9.20;8.90;;;12.90;99.90;;;;;;5057151;28;20245;-83
2023/08/29 04:54:17;;;;;;;9.07;8.77;;;12.90;99.90;;;;;;5060933;28;20231;-85
2023/08/29 04:56:46;;;;;;;9.00;8.70;;;12.90;99.90;;;;;;5072554;28;20231;-85
2023/08/29 04:59:25;;;;;;;9.27;8.97;;;12.90;99.90;;;;;;5063761;28;20234;-84
2023/08/29 05:01:54;;;;;;;9.27;8.97;;;12.90;99.90;;;;;;5060061;28;20261;-85
2023/08/29 05:04:23;;;;;;;9.20;8.90;;;12.90;99.90;;;;;;5061581;28;20322;-84
2023/08/29 05:06:59;;;;;;;9.43;9.13;;;12.90;99.90;;;;;;5053831;28;20262;-84
2023/08/29 05:12:10;;;;;;;9.10;8.80;;;12.90;99.90;;;;;;5051555;28;20323;-85
2023/08/29 05:14:39;;;;;;;9.00;8.70;;;12.90;99.90;;;;;;5060683;28;20234;-84
2023/08/29 05:17:20;;;;;;;8.90;8.60;;;12.90;99.90;;;;;;5050850;28;20235;-85
2023/08/29 05:19:47;;;;;;;8.63;8.43;;;13.00;99.90;;;;;;5056395;28;20237;-84
2023/08/29 05:22:18;;;;;;;8.70;8.50;;;13.00;99.90;;;;;;5061451;28;20234;-84
2023/08/29 05:24:45;;;;;;;9.00;8.70;;;13.00;99.90;;;;;;5054272;28;20251;-84
2023/08/29 05:27:24;;;;;;;8.93;8.63;;;13.00;99.90;;;;;;5050514;28;20231;-84
2023/08/29 05:29:53;;;;;;;9.10;8.80;;;13.00;99.90;;;;;;5050280;28;20249;-84
2023/08/29 05:32:23;;;;;;;8.90;8.60;;;13.00;99.90;;;;;;5060981;28;20246;-85
2023/08/29 05:34:52;;;;;;;8.90;8.60;;;13.10;99.90;;;;;;5061467;28;20254;-85
2023/08/29 05:37:24;;;;;;;8.60;8.40;;;13.10;99.90;;;;;;5062324;28;20238;-85
2023/08/29 05:39:52;;;;;;;8.40;8.20;;;13.10;99.90;;;;;;5043658;28;20268;-86
2023/08/29 05:42:20;;;;;;;8.70;8.50;;;13.10;99.90;;;;;;5044548;28;20223;-85
2023/08/29 05:44:59;;;;;;;8.50;8.30;;;13.10;99.90;;;;;;5076159;28;20219;-83
2023/08/29 05:47:28;;;;;;;8.83;8.53;;;13.20;99.90;;;;;;5079745;28;20219;-84
2023/08/29 05:49:58;;;;;;;8.80;8.50;;;13.20;99.90;;;;;;5079249;28;20218;-84
2023/08/29 05:52:29;;;;;;;9.00;8.70;;;13.20;99.90;;;;;;5078692;28;20215;-84
2023/08/29 05:54:57;;;;;;;9.20;8.90;;;13.20;99.90;;;;;;5079139;28;20279;-84
2023/08/29 05:57:26;;;;;;;9.10;8.80;;;13.30;99.90;;;;;;5079386;28;20211;-84
2023/08/29 05:59:55;;;;;;;9.13;8.83;;;13.30;99.90;;;;;;5078655;28;20227;-83
2023/08/29 06:02:34;;;;;;;9.10;8.80;;;13.30;99.90;;;;;;5078729;28;20211;-84
2023/08/29 06:05:06;;;;;;;9.07;8.77;;;13.30;99.90;;;;;;5078939;28;20210;-84
2023/08/29 06:07:40;;;;;;;9.33;9.03;;;13.30;99.90;;;;;;5079035;28;20270;-84
2023/08/29 06:10:20;;;;;;;9.20;8.90;;;13.40;99.90;;;;;;5081529;28;20225;-83
2023/08/29 06:12:51;;;;;;;9.03;8.73;;;13.30;99.90;;;;;;5082090;28;20234;-85
2023/08/29 06:15:18;;;;;;;9.20;8.90;;;13.30;99.90;;;;;;5082151;28;20295;-84
2023/08/29 06:17:49;;;;;;;9.23;8.93;;;13.40;99.90;;;;;;5082250;28;20277;-84
2023/08/29 06:20:19;;;;;;;9.17;8.87;;;13.40;99.90;;;;;;5081997;28;20230;-84
2023/08/29 06:22:48;;;;;;;8.90;8.60;;;13.40;99.90;;;;;;5081767;28;20225;-85
2023/08/29 06:25:16;;;;;;;9.07;8.77;;;13.40;99.90;;;;;;5070331;28;20309;-85
2023/08/29 06:27:55;;;;;;;8.90;8.60;;;13.40;99.90;;;;;;5063452;28;20235;-85
2023/08/29 06:30:25;;;;;;;9.20;8.90;;;13.40;99.90;;;;;;5062077;28;20274;-86
2023/08/29 06:32:52;;;;;;;9.60;9.30;;;13.50;99.90;;;;;;5059656;28;20463;-86
2023/08/29 06:35:22;;;;;;;9.65;9.35;;;13.50;99.90;;;;;;5068406;28;20298;-86
2023/08/29 06:37:51;;;;;;;9.40;9.10;;;13.50;99.90;;;;;;5063708;28;20224;-85
2023/08/29 06:40:18;;;;;;;9.30;9.00;;;13.50;99.90;;;;;;5066995;28;20290;-84
2023/08/29 06:42:46;;;;;;;9.10;8.80;;;13.50;99.90;;;;;;5079895;28;20250;-85
2023/08/29 06:45:13;;;;;;;8.93;8.63;;;13.50;99.90;;;;;;5080900;28;20239;-86
2023/08/29 06:47:42;;;;;;;9.13;8.83;;;13.50;99.90;;;;;;5076610;28;20238;-86
2023/08/29 06:50:10;;;;;;;9.00;8.70;;;13.50;99.90;;;;;;5060392;28;20238;-86
2023/08/29 06:52:37;;;;;;;9.10;8.80;;;13.50;99.90;;;;;;5060079;28;20246;-85
2023/08/29 06:55:09;;;;;;;8.90;8.60;;;13.50;99.90;;;;;;5058903;28;20326;-86
2023/08/29 06:57:37;;;;;;;8.80;8.50;;;13.50;99.90;;;;;;5053647;28;20318;-86
2023/08/29 07:00:05;;;;;;;8.30;8.10;;;13.40;99.90;;;;;;5060192;28;20247;-85
2023/08/29 07:02:32;;;;;;;8.57;8.37;;;13.40;99.90;;;;;;5059765;28;20235;-86
2023/08/29 07:05:00;;;;;;;8.90;8.60;;;13.40;99.90;;;;;;5060005;28;20305;-86
2023/08/29 07:07:31;;;;;;;8.30;8.10;;;13.40;99.90;;;;;;5058804;28;20234;-86
2023/08/29 07:09:58;;;;;;;8.27;8.07;;;13.40;99.90;;;;;;5054874;28;20223;-86
2023/08/29 07:12:30;;;;;;;8.40;8.20;;;13.40;99.90;;;;;;5060277;28;20231;-86
2023/08/29 07:14:57;;;;;;;8.13;7.93;;;13.50;99.90;;;;;;5060248;28;20245;-86
2023/08/29 07:17:27;;;;;;;8.40;8.20;;;13.50;99.90;;;;;;5060507;28;20290;-86
2023/08/29 07:19:57;;;;;;;8.70;8.40;;;13.50;99.90;;;;;;5060954;28;20238;-86
2023/08/29 07:22:27;;;;;;;8.50;8.30;;;13.60;99.90;;;;;;5059093;28;20227;-86
2023/08/29 07:24:54;;;;;;;8.43;8.23;;;13.60;99.90;;;;;;5058270;28;20298;-85
2023/08/29 07:27:27;;;;;;;8.37;8.17;;;13.60;99.90;;;;;;5062200;28;20265;-85
2023/08/29 07:29:54;;;;;;;8.33;8.13;;;13.60;99.90;;;;;;5061493;28;20293;-85
2023/08/29 07:32:24;;;;;;;8.40;8.20;;;13.60;99.90;;;;;;5061421;28;20297;-84
2023/08/29 07:34:53;;;;;;;8.10;7.90;;;13.60;99.90;;;;;;5059730;28;20250;-86
2023/08/29 07:37:32;;;;;;;8.23;8.03;;;13.60;99.90;;;;;;5060829;28;20341;-85
2023/08/29 07:40:11;;;;;;;8.30;8.10;;;13.60;99.90;;;;;;5061447;28;20238;-85
2023/08/29 07:42:42;;;;;;;8.47;8.27;;;13.60;99.90;;;;;;5060625;28;20245;-85
2023/08/29 07:45:10;;;;;;;8.27;8.07;;;13.70;99.90;;;;;;5060470;28;20250;-86
2023/08/29 07:47:39;;;;;;;8.27;8.07;;;13.60;99.90;;;;;;5061004;28;20231;-85
2023/08/29 07:50:08;;;;;;;8.40;8.20;;;13.70;99.90;;;;;;5061125;28;20226;-85
2023/08/29 07:52:37;;;;;;;8.30;8.10;;;13.70;99.90;;;;;;5054893;28;20286;-84
2023/08/29 07:55:07;;;;;;;8.50;8.30;;;13.80;99.90;;;;;;5041876;28;20231;-85
2023/08/29 07:57:36;;;;;;;8.47;8.27;;;13.80;99.90;;;;;;5042310;28;20266;-86
2023/08/29 08:00:14;;;;;;;8.80;8.50;;;13.80;99.90;;;;;;5040956;28;20290;-86
2023/08/29 08:02:44;;;;;;;8.37;8.17;;;13.80;99.90;;;;;;5041418;28;20237;-85
2023/08/29 08:05:13;;;;;;;8.20;8.00;;;13.80;99.90;;;;;;5047918;28;20277;-85
2023/08/29 08:07:43;;;;;;;8.30;8.10;;;13.80;99.90;;;;;;5058347;28;20223;-85
2023/08/29 08:10:12;;;;;;;8.50;8.30;;;13.80;99.90;;;;;;5057771;28;20374;-84
2023/08/29 08:12:42;;;;;;;8.40;8.20;;;13.90;99.90;;;;;;5060447;28;20249;-84
2023/08/29 08:15:14;;;;;;;8.53;8.33;;;14.00;99.90;;;;;;5060318;28;20239;-85
2023/08/29 08:17:42;;;;;;;8.50;8.30;;;14.00;99.90;;;;;;5058821;28;20288;-85
2023/08/29 08:20:10;;;;;;;8.30;8.10;;;14.00;99.90;;;;;;5062751;28;20255;-85
2023/08/29 08:22:39;;;;;;;8.40;8.20;;;13.90;99.90;;;;;;5070385;28;20270;-83
2023/08/29 08:25:09;;;;;;;8.40;8.20;;;13.90;99.90;;;;;;5049684;28;20265;-86
2023/08/29 08:27:48;;;;;;;8.50;8.30;;;13.90;99.90;;;;;;5077970;28;20229;-85
2023/08/29 08:30:19;;;;;;;8.13;7.93;;;13.90;99.90;;;;;;5080529;28;20235;-85
2023/08/29 08:32:49;;;;;;;8.50;8.30;;;14.00;99.90;;;;;;5080598;28;20234;-84
2023/08/29 08:35:16;;;;;;;8.50;8.30;;;14.10;99.90;;;;;;5088821;28;20230;-84
2023/08/29 08:37:45;;;;;;;8.47;8.27;;;14.10;99.90;;;;;;5099545;28;20238;-83
2023/08/29 08:40:15;;;;;;;8.43;8.23;;;14.10;99.90;;;;;;5099468;28;20249;-83
2023/08/29 08:42:46;;;;;;;8.20;8.00;;;14.20;99.90;;;;;;5084091;28;20222;-85
2023/08/29 08:45:15;;;;;;;8.10;7.90;;;14.30;99.90;;;;;;5080237;28;20238;-86
2023/08/29 08:50:32;;;;;;;8.30;8.10;;;14.30;99.90;;;;;;5076227;28;20233;-86
2023/08/29 08:53:02;;;;;;;8.25;8.05;;;14.40;99.90;;;;;;5079972;28;20238;-86
2023/08/29 08:55:30;;;;;;;8.18;7.97;;;14.60;99.90;;;;;;5080469;28;20310;-86
2023/08/29 08:57:59;;;;;;;8.33;8.13;;;14.60;99.90;;;;;;5079841;28;20261;-86
2023/08/29 09:00:39;;;;;;;8.50;8.30;;;14.50;99.90;;;;;;5079254;28;20250;-87
2023/08/29 09:05:53;;;;;;;9.10;8.80;;;14.40;99.90;;;;;;5080711;28;20225;-86
2023/08/29 09:08:22;;;;;;;8.93;8.63;;;14.30;99.90;;;;;;5066748;28;20230;-88
2023/08/29 09:10:53;;;;;;;8.77;8.47;;;14.20;99.90;;;;;;5059492;28;20242;-87
2023/08/29 09:13:22;;;;;;;8.90;8.60;;;14.30;99.90;;;;;;5076518;28;20299;-87
2023/08/29 09:18:37;;;;;;;8.80;8.50;;;14.30;99.90;;;;;;5080368;28;20226;-88
2023/08/29 09:21:17;;;;;;;9.10;8.80;;;14.20;99.90;;;;;;5080334;28;20234;-88
2023/08/29 09:23:53;;;;;;;9.20;8.90;;;14.20;99.90;;;;;;5066565;28;20231;-88
2023/08/29 09:26:33;;;;;;;9.37;9.07;;;14.10;99.90;;;;;;5056892;28;20229;-88
2023/08/29 09:29:14;;;;;;;9.13;8.83;;;14.20;99.90;;;;;;5056099;28;20254;-88
2023/08/29 09:31:47;;;;;;;8.80;8.60;;;14.20;99.90;;;;;;5059927;28;20236;-88
2023/08/29 09:34:47;;;;;;;9.43;9.13;;;14.30;99.90;;;;;;5059705;28;20277;-90
2023/08/29 09:37:28;;;;;;;8.80;8.60;;;14.30;99.90;;;;;;5070161;28;20233;-86
2023/08/29 09:40:04;;;;;;;9.33;9.03;;;14.40;99.90;;;;;;5074774;28;20240;-87
2023/08/29 09:42:33;;;;;;;9.07;8.77;;;14.40;99.90;;;;;;5076506;28;20261;-88
2023/08/29 09:45:02;;;;;;;9.40;9.10;;;14.50;99.90;;;;;;5069076;28;20235;-86
2023/08/29 09:50:18;;;;;;;9.50;9.20;;;14.50;99.90;;;;;;5062844;28;20230;-87
2023/08/29 09:52:50;;;;;;;9.53;9.23;;;14.50;99.90;;;;;;5063652;28;20234;-86
2023/08/29 09:55:36;;;;;;;9.73;9.43;;;14.60;99.90;;;;;;5063864;28;20230;-85
2023/08/29 09:58:05;;;;;;;9.87;9.57;;;14.50;99.90;;;;;;5063609;28;20239;-87
2023/08/29 10:03:47;;;;;;;10.10;9.80;;;14.60;99.90;;;;;;5063426;28;20270;-87
2023/08/29 10:09:05;;;;;;;9.60;9.30;;;14.70;99.90;;;;;;5063002;28;20234;-86
2023/08/29 10:11:34;;;;;;;9.60;9.30;;;14.70;99.90;;;;;;5066927;28;20230;-83
2023/08/29 10:14:05;;;;;;;9.82;9.52;;;14.80;99.90;;;;;;5049109;28;20227;-86
2023/08/29 10:16:34;;;;;;;10.05;9.75;;;14.80;99.90;;;;;;5043069;28;20244;-86
2023/08/29 10:19:03;;;;;;;9.90;9.60;;;14.90;99.90;;;;;;5042944;28;20227;-87
2023/08/29 10:21:31;;;;;;;9.90;9.60;;;15.00;99.90;;;;;;5042679;28;20286;-86
2023/08/29 10:24:00;;;;;;;10.07;9.77;;;14.90;99.90;;;;;;5042875;28;20231;-85
2023/08/29 10:26:29;;;;;;;9.90;9.60;;;15.00;99.90;;;;;;5042989;28;20656;-86
2023/08/29 10:28:58;;;;;;;9.70;9.40;;;15.10;99.90;;;;;;5049377;28;20227;-84
2023/08/29 10:34:08;;;;;;;9.93;9.63;;;15.40;99.90;;;;;;5065350;22;20250;-80
2023/08/29 10:36:39;;;;;;;9.60;9.30;;;15.30;99.90;;;;;;5041444;28;20241;-79
2023/08/29 10:39:09;;;;;;;10.20;9.90;;;15.40;99.90;;;;;;5048042;28;20231;-79
2023/08/29 10:41:46;;;;;;;9.73;9.43;;;15.40;99.90;;;;;;5035453;28;20236;-79
2023/08/29 10:44:36;;;;;;;10.13;9.82;;;15.30;99.90;;;;;;5036940;28;20235;-79
2023/08/29 10:47:27;;;;;;;10.00;9.70;;;15.30;99.90;;;;;;5037431;28;20234;-80
2023/08/29 10:50:05;;;;;;;9.63;9.32;;;15.20;99.90;;;;;;5029027;28;20239;-81
2023/08/29 10:52:41;;;;;;;9.77;9.48;;;15.20;99.90;;;;;;5043837;28;20235;-81
2023/08/29 10:55:22;;;;;;;9.98;9.68;;;15.20;99.90;;;;;;5043058;28;20234;-81
2023/08/29 10:57:51;;;;;;;10.00;9.70;;;15.10;99.90;;;;;;5061208;28;20279;-80
2023/08/29 11:00:34;;;;;;;9.98;9.68;;;15.00;99.90;;;;;;5045948;28;20239;-81
2023/08/29 11:03:02;;;;;;;10.10;9.80;;;14.90;99.90;;;;;;5046075;28;20233;-81
2023/08/29 11:05:37;;;;;;;9.93;9.63;;;14.90;99.90;;;;;;5046750;28;20219;-81
2023/08/29 11:08:23;;;;;;;9.50;9.20;;;15.00;99.90;;;;;;5045238;28;20298;-79
2023/08/29 11:11:21;;;;;;;9.85;9.55;;;15.10;99.90;;;;;;5055038;28;20234;-80
2023/08/29 11:13:59;;;;;;;9.73;9.43;;;15.20;99.90;;;;;;5042578;28;20334;-79
2023/08/29 11:16:27;;;;;;;9.82;9.52;;;15.20;99.90;;;;;;5060304;28;20234;-81
2023/08/29 11:19:08;;;;;;;10.10;9.80;;;15.20;99.90;;;;;;5065697;28;20227;-81
2023/08/29 11:21:37;;;;;;;10.20;9.90;;;15.10;99.90;;;;;;5065016;28;20241;-82
2023/08/29 11:24:06;;;;;;;10.00;9.70;;;15.10;99.90;;;;;;5064863;28;20428;-81
2023/08/29 11:26:36;;;;;;;10.30;10.00;;;15.10;99.90;;;;;;5064032;28;20242;-81
2023/08/29 11:29:05;;;;;;;9.90;9.60;;;15.20;99.90;;;;;;5063669;28;20237;-81
2023/08/29 11:31:33;;;;;;;9.73;9.43;;;15.50;99.90;;;;;;5063327;28;20241;-81
2023/08/29 11:34:03;;;;;;;9.93;9.63;;;15.70;99.90;;;;;;5053074;28;20242;-82
2023/08/29 11:36:33;;;;;;;10.00;9.70;;;15.80;99.90;;;;;;5054558;28;20230;-81
2023/08/29 11:39:04;;;;;;;10.00;9.70;;;15.90;99.90;;;;;;5051055;28;20226;-80
2023/08/29 11:41:32;;;;;;;10.43;10.13;;;15.90;99.90;;;;;;5048671;28;20523;-80
2023/08/29 11:44:00;;;;;;;10.18;9.88;;;16.00;99.90;;;;;;5045700;28;20263;-80
2023/08/29 11:46:33;;;;;;;10.27;9.98;;;16.20;99.90;;;;;;5047823;28;20211;-82
2023/08/29 11:49:01;;;;;;;10.15;9.85;;;16.40;99.90;;;;;;5045780;28;20220;-81
2023/08/29 11:51:29;;;;;;;10.60;10.30;;;16.40;99.90;;;;;;5044873;28;20290;-82
2023/08/29 11:53:56;;;;;;;10.50;10.20;;;16.50;99.90;;;;;;5045118;28;20283;-81
2023/08/29 11:56:25;;;;;;;10.48;10.18;;;16.50;99.90;;;;;;5045465;28;20231;-81
2023/08/29 12:01:47;;;;;;;10.50;10.20;;;16.40;99.90;;;;;;5224774;27;20558;-83
2023/08/29 12:04:14;;;;;;;10.40;10.10;;;16.30;99.90;;;;;;5197693;27;20238;-82
2023/08/29 12:06:41;;;;;;;10.35;10.05;;;16.30;99.90;;;;;;5181834;27;20308;-79
2023/08/29 12:09:22;;;;;;;10.50;10.20;;;16.40;99.90;;;;;;5180239;27;20227;-80
2023/08/29 12:11:51;;;;;;;10.20;9.90;;;16.20;99.90;;;;;;5171097;27;20227;-81
2023/08/29 12:14:20;;;;;;;10.30;10.00;;;16.30;99.90;;;;;;5171151;27;20226;-79
2023/08/29 12:16:54;;;;;;;10.13;9.82;;;16.20;99.90;;;;;;5179343;27;20237;-80
2023/08/29 12:19:21;;;;;;;10.07;9.77;;;16.30;99.90;;;;;;5175126;27;20211;-80
2023/08/29 12:21:55;;;;;;;9.95;9.65;;;16.40;99.90;;;;;;5180046;27;20226;-80
2023/08/29 12:24:23;;;;;;;10.07;9.77;;;16.40;99.90;;;;;;5180734;27;20294;-81
2023/08/29 12:26:50;;;;;;;9.98;9.68;;;16.30;99.90;;;;;;5192237;27;20233;-81
2023/08/29 12:29:17;;;;;;;9.93;9.63;;;16.30;99.90;;;;;;5188401;27;20313;-80
2023/08/29 12:31:46;;;;;;;10.18;9.88;;;16.30;99.90;;;;;;5183184;27;20244;-81
2023/08/29 12:34:30;;;;;;;9.93;9.63;;;16.50;99.90;;;;;;5186169;27;20215;-82
2023/08/29 12:36:57;;;;;;;9.68;9.38;;;16.50;99.90;;;;;;5197529;27;20236;-81
2023/08/29 12:39:24;;;;;;;9.90;9.60;;;16.60;99.90;;;;;;5195336;27;20241;-80
2023/08/29 12:41:53;;;;;;;9.90;9.60;;;16.80;99.90;;;;;;5182100;27;20298;-78
2023/08/29 12:44:20;;;;;;;10.38;10.07;;;17.00;99.90;;;;;;5186453;27;20231;-78
2023/08/29 12:46:47;;;;;;;9.93;9.63;;;17.10;99.90;;;;;;5175515;27;20249;-79
2023/08/29 12:49:14;;;;;;;10.00;9.70;;;17.30;99.90;;;;;;5179094;27;20227;-78
2023/08/29 12:51:42;;;;;;;10.15;9.85;;;17.40;99.90;;;;;;5178797;27;20233;-79
2023/08/29 12:54:09;;;;;;;10.27;9.98;;;17.20;99.90;;;;;;5178334;27;20223;-80
2023/08/29 12:56:36;;;;;;;10.52;10.23;;;17.20;99.90;;;;;;5177959;27;20237;-79
2023/08/29 12:59:03;;;;;;;10.90;10.60;;;17.20;99.90;;;;;;5178945;27;20227;-79
2023/08/29 13:01:32;;;;;;;10.70;10.40;;;17.30;99.90;;;;;;5178259;27;20234;-79
2023/08/29 13:03:59;;;;;;;10.35;10.05;;;17.30;99.90;;;;;;5177932;27;20231;-79
2023/08/29 13:06:27;;;;;;;10.55;10.25;;;17.40;99.90;;;;;;5179241;27;20700;-79
2023/08/29 13:08:55;;;;;;;10.73;10.43;;;17.40;99.90;;;;;;5176335;27;20237;-79
2023/08/29 13:11:22;;;;;;;10.40;10.10;;;17.30;99.90;;;;;;5168283;27;20252;-79
2023/08/29 13:13:49;;;;;;;10.27;9.98;;;17.40;99.90;;;;;;5160807;27;20219;-79
2023/08/29 13:16:17;;;;;;;10.55;10.25;;;17.50;99.90;;;;;;5161676;27;20393;-79
2023/08/29 13:18:45;;;;;;;10.70;10.40;;;17.40;99.90;;;;;;5166004;27;20216;-80
2023/08/29 13:21:12;;;;;;;10.70;10.40;;;17.40;99.90;;;;;;5166997;27;20299;-79
2023/08/29 13:23:39;;;;;;;10.52;10.23;;;17.40;99.90;;;;;;5160945;27;20225;-79
2023/08/29 13:26:07;;;;;;;10.25;9.95;;;17.50;99.90;;;;;;5162485;27;20235;-79